• Join FlightAware (Why Join?)
  • Login
  • US Flag 
02:05AM EDT


 

Airport Tracker/Info


-or-


 

Live Flight TrackerFlight Track Log ✈ UAL4115 ✈ 29-Nov-2013 ✈ MMGL / GDL - KIAH

Flight Track Log - Related Links

Times and Time Zones

All times are in EST time to prevent confusion due to time zone crossing. See the UAL4115 flight status page for this flight to view local times or setup timezone preferences in your user account.

Time Position Orientation Groundspeed Altitude Reporting Facility
EST Latitude Longitude Course Direction KTS MPH feet Rate Location/Type
07:27AM 20.8196 -103.1348 29° Northeast  Level FlightAware Approximate
07:28AM 20.9189 -103.0758 29° Northeast  Level FlightAware Approximate
07:29AM 21.0181 -103.0168 29° Northeast  Level FlightAware Approximate
07:30AM 21.1173 -102.9577 29° Northeast  Level FlightAware Approximate
07:31AM 21.2165 -102.8985 29° Northeast  Level FlightAware Approximate
07:32AM 21.3156 -102.8392 29° Northeast  Level FlightAware Approximate
07:33AM 21.4148 -102.7799 29° Northeast  Level FlightAware Approximate
07:34AM 21.5139 -102.7205 29° Northeast  Level FlightAware Approximate
07:35AM 21.6130 -102.6609 29° Northeast  Level FlightAware Approximate
07:36AM 21.7120 -102.6014 29° Northeast  Level FlightAware Approximate
07:37AM 21.8111 -102.5417 29° Northeast  Level FlightAware Approximate
07:38AM 21.9101 -102.4819 29° Northeast  Level FlightAware Approximate
07:39AM 22.0091 -102.4221 29° Northeast  Level FlightAware Approximate
07:40AM 22.1081 -102.3622 29° Northeast  Level FlightAware Approximate
07:41AM 22.2071 -102.3022 29° Northeast  Level FlightAware Approximate
07:42AM 22.3060 -102.2421 29° Northeast  Level FlightAware Approximate
07:43AM 22.4049 -102.1819 29° Northeast  Level FlightAware Approximate
07:44AM 22.4949 -102.1071 29° Northeast  Level Estimated
07:45AM 22.5947 -102.0486 28° Northeast  Level FlightAware Approximate
07:46AM 22.6945 -101.9899 28° Northeast  Level FlightAware Approximate
07:47AM 22.7943 -101.9312 28° Northeast  Level FlightAware Approximate
07:48AM 22.8940 -101.8725 28° Northeast  Level FlightAware Approximate
07:49AM 22.9937 -101.8136 29° Northeast  Level FlightAware Approximate
07:50AM 23.0934 -101.7546 29° Northeast  Level FlightAware Approximate
07:51AM 23.1931 -101.6956 29° Northeast  Level FlightAware Approximate
07:52AM 23.2927 -101.6365 29° Northeast  Level FlightAware Approximate
07:53AM 23.3923 -101.5772 29° Northeast  Level FlightAware Approximate
07:54AM 23.4807 -101.4996 29° Northeast  Level Estimated
07:55AM 23.5802 -101.4400 29° Northeast  Level FlightAware Approximate
07:56AM 23.6796 -101.3802 29° Northeast  Level FlightAware Approximate
07:57AM 23.7790 -101.3203 29° Northeast  Level FlightAware Approximate
07:58AM 23.8783 -101.2604 29° Northeast  Level FlightAware Approximate
07:59AM 23.9777 -101.2003 29° Northeast  Level FlightAware Approximate
08:00AM 24.0770 -101.1402 29° Northeast  Level FlightAware Approximate
08:01AM 24.1763 -101.0799 29° Northeast  Level FlightAware Approximate
08:02AM 24.2756 -101.0196 29° Northeast  Level FlightAware Approximate
08:03AM 24.3748 -100.9592 29° Northeast  Level FlightAware Approximate
08:04AM 24.4741 -100.8987 29° Northeast  Level FlightAware Approximate
08:05AM 24.5733 -100.8381 29° Northeast  Level FlightAware Approximate
08:06AM 24.6724 -100.7774 29° Northeast  Level FlightAware Approximate
08:07AM 24.7716 -100.7166 29° Northeast  Level FlightAware Approximate
08:08AM 24.8707 -100.6557 29° Northeast  Level FlightAware Approximate
08:09AM 24.9698 -100.5947 29° Northeast  Level FlightAware Approximate
08:10AM 25.0689 -100.5336 29° Northeast  Level FlightAware Approximate
08:11AM 25.1680 -100.4724 29° Northeast  Level FlightAware Approximate
08:12AM 25.2670 -100.4111 29° Northeast  Level FlightAware Approximate
08:13AM 25.3660 -100.3497 29° Northeast  Level FlightAware Approximate
08:14AM 25.4650 -100.2882 29° Northeast  Level FlightAware Approximate
08:14AM 25.7333 -100.2344 45° Northeast 543 625 37,000  Level Houston Center
08:15AM 25.5639 -100.2266 29° Northeast  Level FlightAware Approximate
08:15AM 25.7917 -100.0872 66° East 532 612 37,000  Level Houston Center
08:16AM 25.6466 -100.1403 47° Northeast  Level Estimated
08:16AM 25.8842 -99.9625 50° Northeast 527 606 37,000  Level Houston Center
08:17AM 25.7372 -100.0645 37° Northeast  Level FlightAware Approximate
08:17AM 25.9819 -99.8464 47° Northeast 522 601 37,000  Level Houston Center
08:18AM 25.8196 -99.9778 48° Northeast  Level Estimated
08:19AM 25.8994 -99.8881 45° Northeast  Level FlightAware Approximate
08:19AM 26.0781 -99.7300 47° Northeast 517 595 37,000  Level Houston Center
08:20AM 25.9792 -99.7983 45° Northeast  Level FlightAware Approximate
08:20AM 26.1739 -99.6139 47° Northeast 512 589 37,000  Level Houston Center
08:21AM 26.2694 -99.4978 47° Northeast 511 588 37,000 -60 Level Houston Center
08:22AM 26.3636 -99.3800 48° Northeast 510 587 36,900  Descending Houston Center
08:23AM 26.4769 -99.2447 47° Northeast 500 575 37,000  Climbing Houston Center
08:24AM 26.5708 -99.1361 46° Northeast 492 566 37,000  Level Houston Center
08:25AM 26.6628 -99.0208 48° Northeast 495 570 37,000  Level Houston Center
08:26AM 26.7542 -98.9089 48° Northeast 492 566 37,000  Level Houston Center
08:27AM 26.8458 -98.7908 49° Northeast 501 577 37,000  Level Houston Center
08:28AM 26.9436 -98.6875 43° Northeast 493 567 37,000  Level Houston Center
08:29AM 27.0564 -98.6161 29° Northeast 469 540 37,000  Level Houston Center
08:30AM 27.1706 -98.5414 30° Northeast 474 545 37,000  Level Houston Center
08:31AM 27.2822 -98.4689 30° Northeast 469 540 37,000  Level Houston Center
08:32AM 27.3964 -98.3969 29° Northeast 473 544 37,000  Level Houston Center
08:33AM 27.5256 -98.2900 36° Northeast 483 556 37,000  Level Houston Center
08:34AM 27.6275 -98.1847 42° Northeast 494 568 37,000  Level Houston Center
08:35AM 27.7228 -98.0869 42° Northeast 472 543 37,000  Level Houston Center
08:36AM 27.8203 -97.9858 43° Northeast 477 549 37,000  Level Houston Center
08:37AM 27.9167 -97.8872 42° Northeast 468 539 37,000  Level Houston Center
08:38AM 28.0167 -97.7831 43° Northeast 469 540 37,000  Level Houston Center
08:39AM 28.1139 -97.6811 43° Northeast 461 531 37,000  Level Houston Center
08:40AM 28.2108 -97.5808 42° Northeast 461 531 37,000  Level Houston Center
08:41AM 28.3078 -97.4797 43° Northeast 464 534 37,000  Level Houston Center
08:42AM 28.4050 -97.3781 43° Northeast 465 535 37,000  Level Houston Center
08:43AM 28.4981 -97.2828 42° Northeast 472 543 37,000  Level Houston Center
08:44AM 28.5931 -97.1814 43° Northeast 467 537 37,000 -240 Level Houston Center
08:45AM 28.6897 -97.0797 43° Northeast 471 542 36,600 -1,620 Descending Houston Center
08:46AM 28.7825 -96.9808 43° Northeast 463 533 33,800 -2,880 Descending Houston Center
08:47AM 28.8753 -96.8839 42° Northeast 454 522 30,800 -3,120 Descending Houston Center
08:48AM 28.9631 -96.7908 43° Northeast 436 502 27,500 -3,360 Descending Houston Center
08:49AM 29.0675 -96.6794 43° Northeast 430 495 24,100 -3,060 Descending Houston Center
08:50AM 29.1183 -96.6231 44° Northeast 431 496 22,600 -2,460 Descending Houston Center
08:50AM 29.1539 -96.5869 42° Northeast 432 497 21,600 -2,460 Descending Houston Center
08:51AM 29.2031 -96.5325 44° Northeast 427 491 19,900 -2,400 Descending Houston Center
08:51AM 29.2378 -96.4981 41° Northeast 419 482 19,200 -2,100 Descending Houston Center
08:52AM 29.2997 -96.4336 42° Northeast 404 465 17,800 -1,920 Descending Houston Center
08:52AM 29.3183 -96.4119 45° Northeast 403 464 17,300 -2,100 Descending Houston Center
08:53AM 29.3803 -96.3456 43° Northeast 385 443 15,700 -1,980 Descending Houston Center
08:53AM 29.3967 -96.3294 41° Northeast 388 447 15,300 -1,980 Descending Houston Center
08:54AM 29.4575 -96.2653 43° Northeast 374 430 13,700 -1,980 Descending Houston Center
08:54AM 29.4714 -96.2483 47° Northeast 376 433 13,300 -1,620 Descending Houston Center
08:55AM 29.5303 -96.1828 44° Northeast 368 423 12,100 -1,380 Descending Houston Center
08:55AM 29.5461 -96.1667 42° Northeast 373 429 11,900 -900 Descending Houston Center
08:56AM 29.5869 -96.0853 60° Northeast 364 419 11,200 -900 Descending Houston Center
08:56AM 29.5978 -96.0664 57° Northeast 367 422 11,000 -1,020 Descending Houston Center
08:57AM 29.6372 -95.9883 60° Northeast 308 354 10,200 -1,020 Descending Houston Center
08:57AM 29.6472 -95.9678 61° Northeast 336 387 10,000 -1,020 Descending Houston Center
08:58AM 29.6764 -95.9069 61° Northeast 291 335 9,200 -1,020 Descending Houston Center
08:58AM 29.6864 -95.8892 57° Northeast 292 336 9,000 -840 Descending Houston Center
08:59AM 29.7256 -95.8108 60° Northeast 283 326 8,100 -1,020 Descending Houston Center
09:00AM 29.7583 -95.7433 61° Northeast 278 320 7,200 -1,020 Descending Houston Center
09:00AM 29.7639 -95.7339 56° Northeast 278 320 7,100 -1,020 Descending Houston Center
09:01AM 29.7997 -95.6642 59° Northeast 276 318 6,200 -1,020 Descending Houston Center
09:01AM 29.8022 -95.6575 67° East 276 318 6,100 -240 Descending Houston Center
09:02AM 29.8369 -95.5875 60° Northeast 272 313 6,000 -120 Descending Houston Center
09:02AM 29.8400 -95.5806 63° Northeast 275 316 6,000  Level Houston Center
09:03AM 29.8761 -95.5106 59° Northeast 277 319 6,000  Level Houston Center
09:03AM 29.8786 -95.5033 68° East 276 318 6,000  Level Houston Center
09:04AM 29.8950 -95.4167 78° East 272 313 6,000  Level Houston Center
09:04AM 29.8958 -95.4208 283° West 276 318 6,000  Level Houston Center
09:05AM 29.8961 -95.3394 90° East 266 306 6,000 60 Level Houston Center
09:05AM 29.8967 -95.3350 82° East 267 307 6,100 -540 Climbing Houston Center
09:06AM 29.8950 -95.2575 91° East 244 281 5,500 -720 Descending Houston Center
09:06AM 29.8969 -95.2522 67° East 260 299 5,400 -1,980 Descending Houston Center
09:07AM 29.8986 -95.1825 88° East 241 277 3,500 -1,980 Descending Houston Center
09:07AM 29.8997 -95.1767 78° East 239 275 3,400 -1,320 Descending Houston Center
09:08AM 29.9467 -95.1789 358° North 203 234 2,200 -1,380 Descending Houston Center
09:08AM 29.9556 -95.1931 306° West 208 239 2,000 -780 Descending Houston Center
09:09AM 29.9717 -95.2242 301° West 166 191 1,500 -720 Descending Houston Center
09:09AM 29.9775 -95.2408 292° West 180 207 1,300 -840 Descending Houston Center
09:10AM 29.9767 -95.2789 269° West 148 170 600 -840 Descending Houston Center
09:10AM 29.9775 -95.2878 276° West 152 175 500 -420 Descending Houston Center